createdAt,value
2023-05-06T00:01:29.383Z,4.80
2023-05-06T00:03:56.702Z,5.10
2023-05-06T00:06:24.066Z,5.90
2023-05-06T00:08:51.182Z,5.60
2023-05-06T00:11:18.338Z,6.40
2023-05-06T00:13:45.640Z,7.60
2023-05-06T00:16:12.610Z,7.20
2023-05-06T00:18:41.723Z,7.20
2023-05-06T00:21:08.874Z,7.50
2023-05-06T00:23:35.884Z,7.00
2023-05-06T00:26:03.077Z,5.70
2023-05-06T00:28:30.230Z,5.90
2023-05-06T00:30:57.576Z,5.80
2023-05-06T00:33:24.727Z,5.30
2023-05-06T00:35:52.695Z,5.20
2023-05-06T00:38:19.850Z,6.00
2023-05-06T00:40:46.897Z,5.60
2023-05-06T00:43:13.945Z,5.20
2023-05-06T00:45:41.011Z,5.10
2023-05-06T00:48:08.289Z,5.30
2023-05-06T00:50:35.472Z,4.30
2023-05-06T00:53:04.423Z,4.70
2023-05-06T00:55:31.761Z,4.60
2023-05-06T00:57:59.187Z,4.90
2023-05-06T01:00:26.544Z,5.30
2023-05-06T01:02:53.989Z,5.30
2023-05-06T01:05:22.966Z,5.50
2023-05-06T01:07:57.078Z,4.80
2023-05-06T01:10:43.214Z,5.10
2023-05-06T01:13:19.441Z,4.00
2023-05-06T01:15:51.223Z,3.80
2023-05-06T01:18:19.608Z,4.30
2023-05-06T01:20:48.285Z,5.20
2023-05-06T01:23:15.453Z,4.90
2023-05-06T01:25:42.794Z,4.80
2023-05-06T01:28:11.553Z,4.50
2023-05-06T01:31:12.964Z,4.90
2023-05-06T01:33:40.088Z,5.00
2023-05-06T01:36:41.655Z,4.00
2023-05-06T01:39:17.233Z,3.90
2023-05-06T01:41:44.773Z,4.50
2023-05-06T01:44:12.053Z,4.50
2023-05-06T01:46:41.096Z,4.10
2023-05-06T01:49:11.580Z,4.30
2023-05-06T01:51:39.050Z,5.40
2023-05-06T01:54:06.529Z,4.60
2023-05-06T01:56:34.472Z,4.50
2023-05-06T01:59:01.654Z,4.70
2023-05-06T02:01:28.857Z,3.80
2023-05-06T02:03:56.130Z,3.90
2023-05-06T02:06:23.718Z,4.40
2023-05-06T02:08:50.828Z,4.50
2023-05-06T02:11:21.183Z,4.40
2023-05-06T02:13:49.836Z,4.90
2023-05-06T02:16:16.909Z,4.50
2023-05-06T02:18:44.099Z,5.40
2023-05-06T02:21:11.482Z,4.70
2023-05-06T02:23:38.687Z,4.00
2023-05-06T02:26:05.764Z,3.80
2023-05-06T02:28:34.538Z,4.10
2023-05-06T02:31:01.545Z,4.80
2023-05-06T02:33:28.911Z,4.80
2023-05-06T02:35:55.973Z,4.80
2023-05-06T02:38:23.156Z,4.40
2023-05-06T02:40:50.451Z,4.50
2023-05-06T02:43:17.610Z,3.80
2023-05-06T02:45:44.760Z,3.90
2023-05-06T02:48:11.805Z,4.30
2023-05-06T02:50:38.851Z,4.50
2023-05-06T02:53:05.920Z,4.90
2023-05-06T02:55:33.144Z,5.00
2023-05-06T02:58:00.500Z,5.30
2023-05-06T03:00:27.519Z,4.80
2023-05-06T03:02:54.633Z,4.10
2023-05-06T03:05:21.775Z,12.20
2023-05-06T03:07:49.026Z,28.10
2023-05-06T03:10:16.290Z,19.80
2023-05-06T03:12:44.137Z,9.70
2023-05-06T03:15:11.677Z,14.70
2023-05-06T03:17:39.630Z,12.40
2023-05-06T03:20:08.779Z,7.20
2023-05-06T03:25:05.285Z,6.80
2023-05-06T03:27:33.662Z,13.90
2023-05-06T03:30:04.293Z,8.70
2023-05-06T03:32:32.197Z,7.00
2023-05-06T03:34:59.651Z,4.90
2023-05-06T03:37:27.386Z,5.40
2023-05-06T03:39:55.453Z,5.20
2023-05-06T03:42:24.853Z,5.50
2023-05-06T03:44:51.853Z,5.50
2023-05-06T03:47:19.259Z,5.80
2023-05-06T03:49:46.324Z,4.20
2023-05-06T03:52:13.557Z,4.70
2023-05-06T03:54:40.712Z,5.40
2023-05-06T03:57:07.922Z,5.60
2023-05-06T03:59:35.102Z,7.00
2023-05-06T04:02:03.123Z,7.40
2023-05-06T04:04:32.066Z,6.60
2023-05-06T04:06:59.096Z,6.20
2023-05-06T04:09:26.773Z,7.50
2023-05-06T04:11:54.540Z,5.20
2023-05-06T04:14:22.199Z,5.60
2023-05-06T04:16:49.566Z,5.60
2023-05-06T04:19:17.916Z,5.60
2023-05-06T04:21:45.613Z,6.20
2023-05-06T04:24:16.050Z,5.70
2023-05-06T04:26:43.154Z,5.00
2023-05-06T04:29:10.728Z,7.70
2023-05-06T04:31:43.612Z,8.00
2023-05-06T04:34:11.903Z,7.20
2023-05-06T04:36:40.704Z,6.50
2023-05-06T04:39:22.907Z,5.40
2023-05-06T04:41:51.787Z,3.80
2023-05-06T04:44:23.825Z,4.30
2023-05-06T04:46:51.326Z,4.40
2023-05-06T04:49:18.305Z,3.80
2023-05-06T04:51:45.739Z,3.90
2023-05-06T04:54:13.130Z,3.70
2023-05-06T04:56:40.422Z,3.80
2023-05-06T04:59:08.169Z,3.70
2023-05-06T05:01:35.333Z,4.10
2023-05-06T05:04:02.242Z,3.20
2023-05-06T05:06:29.979Z,3.50
2023-05-06T05:08:58.707Z,4.10
2023-05-06T05:11:26.856Z,3.70
2023-05-06T05:13:56.850Z,3.50
2023-05-06T05:16:24.743Z,4.10
2023-05-06T05:18:52.996Z,3.80
2023-05-06T05:21:22.412Z,3.60
2023-05-06T05:23:49.404Z,4.30
2023-05-06T05:26:16.860Z,4.30
2023-05-06T09:57:32.696Z,2.60
2023-05-06T09:59:58.994Z,2.50
2023-05-06T10:02:25.367Z,2.70
2023-05-06T10:04:52.156Z,3.10
2023-05-06T10:07:21.947Z,3.10
2023-05-06T10:09:48.362Z,2.90
2023-05-06T10:12:14.623Z,2.70
2023-05-06T10:14:40.898Z,3.00
2023-05-06T10:17:08.670Z,2.60
2023-05-06T10:19:35.198Z,3.50
2023-05-06T10:22:39.676Z,2.60
2023-05-06T10:25:44.240Z,4.30
2023-05-06T10:28:11.693Z,2.60
2023-05-06T10:30:41.928Z,2.90
2023-05-06T10:33:11.590Z,2.50
2023-05-06T10:35:52.271Z,2.50
2023-05-06T10:38:29.467Z,3.10
2023-05-06T10:40:55.866Z,3.10
2023-05-06T10:43:26.613Z,2.20
2023-05-06T10:46:14.850Z,2.70
2023-05-06T10:49:03.825Z,2.50
2023-05-06T10:51:32.231Z,2.10
2023-05-06T10:54:08.445Z,2.00
2023-05-06T10:56:47.431Z,2.50
2023-05-06T10:59:13.944Z,2.50
2023-05-06T11:01:41.324Z,3.00
2023-05-06T11:04:09.315Z,2.60
2023-05-06T11:06:44.259Z,3.20
2023-05-06T11:09:20.769Z,3.10
2023-05-06T11:12:01.225Z,2.30
2023-05-06T11:14:28.159Z,2.20
2023-05-06T11:16:56.176Z,2.00
2023-05-06T11:19:29.726Z,1.80
2023-05-06T11:21:57.661Z,2.20
2023-05-06T11:24:23.995Z,2.60
2023-05-06T11:26:50.354Z,3.00
2023-05-06T11:29:17.185Z,2.00
2023-05-06T11:31:44.121Z,2.20
2023-05-06T11:34:12.732Z,3.80
2023-05-06T11:36:46.538Z,2.50
2023-05-06T11:39:13.717Z,2.70
2023-05-06T11:41:42.608Z,2.70
2023-05-06T11:44:11.424Z,2.30
2023-05-06T11:46:38.222Z,4.20
2023-05-06T11:49:04.640Z,3.40
2023-05-06T11:51:32.010Z,2.20
2023-05-06T11:54:06.311Z,2.60
2023-05-06T11:56:50.327Z,2.90
2023-05-06T11:59:17.926Z,2.20
2023-05-06T12:01:45.347Z,2.00
2023-05-06T12:04:12.133Z,2.60
2023-05-06T12:06:39.503Z,2.10
2023-05-06T12:09:08.981Z,3.20
2023-05-06T12:11:35.686Z,3.40
2023-05-06T12:14:03.487Z,2.80
2023-05-06T12:16:29.996Z,2.20
2023-05-06T12:18:56.427Z,2.10
2023-05-06T12:21:23.427Z,3.10
2023-05-06T12:23:57.274Z,2.40
2023-05-06T12:26:23.655Z,2.90
2023-05-06T12:29:06.497Z,1.90
2023-05-06T12:31:32.747Z,2.70
2023-05-06T12:34:01.024Z,4.00
2023-05-06T12:36:27.813Z,5.90
2023-05-06T12:38:58.355Z,6.50
2023-05-06T12:41:36.176Z,3.60
2023-05-06T12:44:02.876Z,3.80
2023-05-06T12:46:29.430Z,2.90
2023-05-06T12:49:02.129Z,2.50
2023-05-06T12:51:30.065Z,6.70
2023-05-06T12:53:56.329Z,11.40
2023-05-06T12:56:22.658Z,7.80
2023-05-06T12:58:57.010Z,5.90
2023-05-06T13:01:23.300Z,3.60
2023-05-06T13:03:50.381Z,5.00
2023-05-06T13:06:16.570Z,8.20
2023-05-06T13:08:43.213Z,4.20
2023-05-06T13:11:09.429Z,4.90
2023-05-06T13:13:35.670Z,3.20
2023-05-06T13:16:01.985Z,4.70
2023-05-06T13:18:28.794Z,5.20
2023-05-06T13:20:55.205Z,2.90
2023-05-06T13:23:22.016Z,2.70
2023-05-06T13:26:00.267Z,3.20
2023-05-06T13:28:32.512Z,2.90
2023-05-06T13:30:58.886Z,2.20
2023-05-06T13:33:25.240Z,2.50
2023-05-06T13:35:51.575Z,3.90
2023-05-06T13:38:17.933Z,2.10
2023-05-06T13:40:49.805Z,4.20
2023-05-06T13:43:16.164Z,2.30
2023-05-06T13:45:44.025Z,2.40
2023-05-06T13:48:11.538Z,2.10
2023-05-06T13:50:37.910Z,2.50
2023-05-06T13:53:04.797Z,1.90
2023-05-06T13:55:31.245Z,2.00
2023-05-06T13:57:57.721Z,3.00
2023-05-06T14:00:24.057Z,2.40
2023-05-06T14:02:50.546Z,2.10
2023-05-06T14:05:17.015Z,2.10
2023-05-06T14:07:43.479Z,2.70
2023-05-06T14:10:10.021Z,2.80
2023-05-06T14:12:36.454Z,2.10
2023-05-06T14:15:05.901Z,2.50
2023-05-06T14:17:32.407Z,2.60
2023-05-06T14:19:58.737Z,2.30
2023-05-06T14:22:24.970Z,2.40
2023-05-06T14:24:51.290Z,2.50
2023-05-06T14:27:17.611Z,2.60
2023-05-06T14:29:45.504Z,2.20
2023-05-06T14:32:12.321Z,2.20
2023-05-06T14:34:38.612Z,2.70
2023-05-06T14:37:05.302Z,2.10
2023-05-06T14:39:32.027Z,2.30
2023-05-06T14:41:58.735Z,2.30
2023-05-06T14:44:24.990Z,2.30
2023-05-06T14:46:51.229Z,2.20
2023-05-06T14:49:17.803Z,3.20
2023-05-06T14:51:44.204Z,2.70
2023-05-06T14:54:10.683Z,2.30
2023-05-06T14:56:37.202Z,2.40
2023-05-06T14:59:04.219Z,3.60
2023-05-06T15:01:33.118Z,2.70
2023-05-06T15:03:59.633Z,3.10
2023-05-06T15:06:26.775Z,3.70
2023-05-06T15:08:53.046Z,3.00
2023-05-06T15:11:20.348Z,2.50
2023-05-06T15:13:46.738Z,3.50
2023-05-06T15:16:13.012Z,2.30
2023-05-06T15:18:41.288Z,3.10
2023-05-06T15:21:07.560Z,2.60
2023-05-06T15:23:33.837Z,2.80
2023-05-06T15:26:00.224Z,2.60
2023-05-06T15:28:26.794Z,2.80
2023-05-06T15:30:53.036Z,3.00
2023-05-06T15:33:19.450Z,2.60
2023-05-06T15:35:45.758Z,2.70
2023-05-06T15:38:12.008Z,2.70
2023-05-06T15:40:41.943Z,2.70
2023-05-06T15:43:08.201Z,4.50
2023-05-06T15:45:34.825Z,5.60
2023-05-06T15:48:02.248Z,5.90
2023-05-06T15:50:33.433Z,6.50
2023-05-06T15:53:01.360Z,7.30
2023-05-06T15:55:27.974Z,10.00
2023-05-06T15:57:54.247Z,4.50
2023-05-06T16:00:21.381Z,3.20
2023-05-06T16:02:48.168Z,7.60
2023-05-06T16:05:14.692Z,8.60
2023-05-06T16:07:41.188Z,23.50
2023-05-06T16:10:08.253Z,13.70
2023-05-06T16:12:35.117Z,21.40
2023-05-06T16:15:02.573Z,17.30
2023-05-06T16:17:29.817Z,16.40
2023-05-06T16:19:56.074Z,35.10
2023-05-06T16:22:22.314Z,18.20
2023-05-06T16:24:48.754Z,32.90
2023-05-06T16:27:15.565Z,17.80
2023-05-06T16:29:41.945Z,26.00
2023-05-06T16:32:08.397Z,7.30
2023-05-06T16:34:38.260Z,9.00
2023-05-06T16:39:33.530Z,6.50
2023-05-06T16:42:00.227Z,3.10
2023-05-06T16:44:26.521Z,6.10
2023-05-06T16:46:52.824Z,13.00
2023-05-06T16:49:20.465Z,8.40
2023-05-06T16:51:47.284Z,5.10
2023-05-06T16:54:13.581Z,3.10
2023-05-06T16:56:50.962Z,4.10
2023-05-06T16:59:20.120Z,4.00
2023-05-06T17:01:48.077Z,3.20
2023-05-06T17:04:14.699Z,5.60
2023-05-06T17:06:40.943Z,7.50
2023-05-06T17:09:07.454Z,5.10
2023-05-06T17:11:33.695Z,4.40
2023-05-06T17:14:00.306Z,4.20
2023-05-06T17:16:26.520Z,4.20
2023-05-06T17:18:52.862Z,4.10
2023-05-06T17:21:20.079Z,4.40
2023-05-06T17:23:46.307Z,6.50
2023-05-06T17:26:12.622Z,11.60
2023-05-06T17:28:39.205Z,6.60
2023-05-06T17:31:05.444Z,6.30
2023-05-06T17:33:32.000Z,7.60
2023-05-06T17:35:58.243Z,6.50
2023-05-06T17:38:24.434Z,14.00
2023-05-06T17:40:50.809Z,11.70
2023-05-06T17:43:17.221Z,11.60
2023-05-06T17:45:43.545Z,12.50
2023-05-06T17:48:09.851Z,8.70
2023-05-06T17:50:36.595Z,7.10
2023-05-06T17:53:02.799Z,4.20
2023-05-06T17:55:29.223Z,4.70
2023-05-06T17:57:55.506Z,3.40
2023-05-06T18:00:22.034Z,3.90
2023-05-06T18:02:48.395Z,4.50
2023-05-06T18:05:16.125Z,11.40
2023-05-06T18:07:42.957Z,5.60
2023-05-06T18:10:10.143Z,5.30
2023-05-06T18:12:36.690Z,3.60
2023-05-06T18:15:03.521Z,3.20
2023-05-06T18:17:30.148Z,3.90
2023-05-06T18:19:56.485Z,11.30
2023-05-06T18:22:22.720Z,15.30
2023-05-06T18:24:54.254Z,15.50
2023-05-06T18:27:21.270Z,6.10
2023-05-06T18:29:47.837Z,5.00
2023-05-06T18:32:14.316Z,8.30
2023-05-06T18:34:41.110Z,5.60
2023-05-06T18:37:07.352Z,4.00
2023-05-06T18:39:33.546Z,4.10
2023-05-06T18:42:00.304Z,3.10
2023-05-06T18:44:26.608Z,4.50
2023-05-06T18:46:52.871Z,4.00
2023-05-06T18:49:19.127Z,4.50
2023-05-06T18:51:45.571Z,3.10
2023-05-06T18:54:13.466Z,4.80
2023-05-06T18:56:41.857Z,7.50
2023-05-06T18:59:08.611Z,6.30
2023-05-06T19:01:35.025Z,10.50
2023-05-06T19:04:01.611Z,8.30
2023-05-06T19:06:28.522Z,6.90
2023-05-06T19:08:54.818Z,7.20
2023-05-06T19:11:21.098Z,5.20
2023-05-06T19:13:49.299Z,5.60
2023-05-06T19:16:15.974Z,4.70
2023-05-06T19:18:42.457Z,6.60
2023-05-06T19:21:11.840Z,4.00
2023-05-06T19:23:38.376Z,4.70
2023-05-06T19:26:06.390Z,4.50
2023-05-06T19:28:33.611Z,4.20
2023-05-06T19:31:00.321Z,5.00
2023-05-06T19:33:26.643Z,3.80
2023-05-06T19:35:52.839Z,3.90
2023-05-06T19:38:19.352Z,4.50
2023-05-06T19:40:45.872Z,3.40
2023-05-06T19:43:12.153Z,3.10
2023-05-06T19:45:38.920Z,3.50
2023-05-06T19:48:05.403Z,4.00
2023-05-06T19:50:32.856Z,12.20
2023-05-06T19:52:59.195Z,28.00
2023-05-06T19:55:25.722Z,12.00
2023-05-06T19:57:55.231Z,11.90
2023-05-06T20:00:21.614Z,4.30
2023-05-06T20:02:47.989Z,4.70
2023-05-06T20:05:14.374Z,5.90
2023-05-06T20:07:40.831Z,10.90
2023-05-06T20:10:09.307Z,7.10
2023-05-06T20:12:35.772Z,3.80
2023-05-06T20:15:03.095Z,3.30
2023-05-06T20:17:29.876Z,3.00
2023-05-06T20:19:58.889Z,3.30
2023-05-06T20:22:25.805Z,4.20
2023-05-06T20:24:52.541Z,3.40
2023-05-06T20:27:22.203Z,2.90
2023-05-06T20:29:50.885Z,2.80
2023-05-06T20:32:17.321Z,2.80
2023-05-06T20:34:43.653Z,3.00
2023-05-06T20:37:10.162Z,2.90
2023-05-06T20:39:36.619Z,3.40
2023-05-06T20:42:03.027Z,2.40
2023-05-06T20:44:29.427Z,3.20
2023-05-06T20:46:55.839Z,3.00
2023-05-06T20:49:22.368Z,2.90
2023-05-06T20:51:48.719Z,17.00
2023-05-06T20:54:15.210Z,5.80
2023-05-06T20:56:42.405Z,3.90
2023-05-06T20:59:08.803Z,3.50
2023-05-06T21:01:35.356Z,4.70
2023-05-06T21:04:02.733Z,3.90
2023-05-06T21:06:29.403Z,3.30
2023-05-06T21:08:56.499Z,2.80
2023-05-06T21:11:23.112Z,2.90
2023-05-06T21:13:50.197Z,3.00
2023-05-06T21:16:17.097Z,2.50
2023-05-06T21:18:43.650Z,3.30
2023-05-06T21:21:09.974Z,2.70
2023-05-06T21:23:36.592Z,2.90
2023-05-06T21:26:02.952Z,4.80
2023-05-06T21:28:29.628Z,2.70
2023-05-06T21:30:55.993Z,2.90
2023-05-06T21:33:22.648Z,2.60
2023-05-06T21:35:49.065Z,2.60
2023-05-06T21:38:15.564Z,5.20
2023-05-06T21:40:41.884Z,3.10
2023-05-06T21:43:08.268Z,5.50
2023-05-06T21:45:35.135Z,3.20
2023-05-06T21:48:01.511Z,2.90
2023-05-06T21:50:27.814Z,2.60
2023-05-06T21:52:54.197Z,2.90
2023-05-06T21:55:20.536Z,2.80
2023-05-06T21:57:46.843Z,3.30
2023-05-06T22:00:14.110Z,4.10
2023-05-06T22:02:42.400Z,3.20
2023-05-06T22:05:09.302Z,3.40
2023-05-06T22:07:36.606Z,7.20
2023-05-06T22:10:03.955Z,4.30
2023-05-06T22:12:31.356Z,8.30
2023-05-06T22:14:57.852Z,4.10
2023-05-06T22:17:24.279Z,4.30
2023-05-06T22:19:51.264Z,5.40
2023-05-06T22:22:18.170Z,3.00
2023-05-06T22:24:44.820Z,3.20
2023-05-06T22:27:11.120Z,4.20
2023-05-06T22:29:37.512Z,3.40
2023-05-06T22:32:04.136Z,3.90
2023-05-06T22:34:30.503Z,3.10
2023-05-06T22:36:59.047Z,3.40
2023-05-06T22:39:26.793Z,3.70
2023-05-06T22:41:53.103Z,3.30
2023-05-06T22:44:20.318Z,3.70
2023-05-06T22:46:46.833Z,2.60
2023-05-06T22:49:13.870Z,3.20
2023-05-06T22:51:40.706Z,2.70
2023-05-06T22:54:07.212Z,3.10
2023-05-06T22:56:34.564Z,3.20
2023-05-06T22:59:00.834Z,3.30
2023-05-06T23:01:31.371Z,3.20
2023-05-06T23:03:58.766Z,4.30
2023-05-06T23:06:26.778Z,3.80
2023-05-06T23:08:53.007Z,3.80
2023-05-06T23:11:19.652Z,2.40
2023-05-06T23:13:46.229Z,2.50
2023-05-06T23:16:13.852Z,3.30
2023-05-06T23:18:40.474Z,3.50
2023-05-06T23:21:06.854Z,3.50
2023-05-06T23:23:33.383Z,4.10
2023-05-06T23:25:59.976Z,3.70
2023-05-06T23:28:27.256Z,6.60
2023-05-06T23:30:53.611Z,3.20
2023-05-06T23:33:19.938Z,3.80
2023-05-06T23:35:46.383Z,3.70
2023-05-06T23:38:12.692Z,3.50
2023-05-06T23:40:39.057Z,3.30
2023-05-06T23:43:09.082Z,2.90
2023-05-06T23:45:36.937Z,3.40
2023-05-06T23:48:04.048Z,3.60
2023-05-06T23:50:30.626Z,3.00
2023-05-06T23:52:56.865Z,3.00
2023-05-06T23:55:25.598Z,3.20
2023-05-06T23:57:51.974Z,3.00
